首页
METAR-TAF:

METAR-TAF

机场 :

新奥尔良, 路易斯安那州, 美国

纬度: 30-02-58N, 经度: 090-01-44W, 海拔: 2米

当前天气观测

该预报发布于18分钟前的05:53 UTC
风速8节,风向东南
温度 27°C
湿度 79%
气压 1012 hPa
能見度: 16.1公里
天空无云

METAR: KNEW 250553Z AUTO 13008KT 10SM CLR 27/23 A2988 RMK AO2 SLP110 T02670228 10294 20267 403110244 58010

时间: 01:11 (06:11 UTC)

预报

该预报发布于51分钟前的05:20 UTC
预报有效从25日的 06点(UTC)到 26日的 06点(UTC)
风速8节,风向东转东南
能見度: 10公里
少量云层高于25000英尺
从 25日的 1600点(UTC)
风速13节,风向
能見度: 10公里
少量云层高于2500英尺
散云层高于3500英尺
附近有阵雨
从 25日的 2100点(UTC)
风速13节,风向,有时为21节阵风
能見度: 10公里
散云层高于3000英尺, 积雨云.
多云层高于4500英尺
附近有雷暴
从 26日的 0300点(UTC)
风速13节,风向,有时为21节阵风
能見度: 10公里
散云层高于2500英尺

TAF: KNEW 250520Z 2506/2606 12008KT P6SM FEW250 FM251600 10013KT P6SM VCSH FEW025 SCT035 FM252100 10013G21KT P6SM VCTS SCT030CB BKN045 FM260300 09013G21KT P6SM SCT025

超过4000个机场的气象观测和天气预报(METAR&TAF报告)。

可查询的气象台以黄色和红色小点在地图上表示。

将鼠标移到小点上方,可查看气象台名称。

然后点击查看天气观测和预报。

如需切换地图:点击带黑十字的绿色按钮放大地图;点击带横线的绿色按钮缩小地图;或者点击绿色箭头查看邻近地区的地图。


METAR-TAF: